createdAt,value
2023-07-03T00:00:26.887Z,10.86
2023-07-03T00:05:49.564Z,11.31
2023-07-03T00:11:12.426Z,11.20
2023-07-03T00:16:34.759Z,10.71
2023-07-03T00:22:00.876Z,10.83
2023-07-03T00:27:23.007Z,10.70
2023-07-03T00:32:45.715Z,10.74
2023-07-03T00:38:11.390Z,10.75
2023-07-03T00:43:35.663Z,11.01
2023-07-03T00:48:57.669Z,11.05
2023-07-03T00:54:20.766Z,10.88
2023-07-03T00:59:44.091Z,10.60
2023-07-03T01:05:21.370Z,10.84
2023-07-03T01:10:43.997Z,11.08
2023-07-03T01:16:08.502Z,10.99
2023-07-03T01:21:38.766Z,10.95
2023-07-03T01:27:05.313Z,10.93
2023-07-03T01:32:31.875Z,11.03
2023-07-03T01:37:57.345Z,11.20
2023-07-03T01:43:19.628Z,11.40
2023-07-03T01:48:42.072Z,11.38
2023-07-03T01:54:13.643Z,11.60
2023-07-03T01:59:37.230Z,11.57
2023-07-03T02:05:17.835Z,11.81
2023-07-03T02:10:40.237Z,11.92
2023-07-03T02:16:02.563Z,11.98
2023-07-03T02:21:24.861Z,12.01
2023-07-03T02:26:47.608Z,12.10
2023-07-03T02:32:11.204Z,12.37
2023-07-03T02:37:33.709Z,12.52
2023-07-03T02:42:57.028Z,12.56
2023-07-03T02:48:19.662Z,12.71
2023-07-03T02:53:44.465Z,13.00
2023-07-03T02:59:09.566Z,13.51
2023-07-03T03:04:32.705Z,13.91
2023-07-03T03:09:58.878Z,14.37
2023-07-03T03:15:21.220Z,14.56
2023-07-03T03:20:45.622Z,15.10
2023-07-03T03:26:08.691Z,15.56
2023-07-03T03:31:30.705Z,16.57
2023-07-03T03:36:58.328Z,16.53
2023-07-03T03:42:20.587Z,17.00
2023-07-03T03:47:42.985Z,17.68
2023-07-03T03:53:05.591Z,17.56
2023-07-03T03:58:27.760Z,17.68
2023-07-03T04:03:49.864Z,17.80
2023-07-03T04:09:12.047Z,18.45
2023-07-03T04:14:34.646Z,19.16
2023-07-03T04:19:56.893Z,19.25
2023-07-03T04:25:19.021Z,20.00
2023-07-03T04:30:42.137Z,20.07
2023-07-03T04:36:04.319Z,19.71
2023-07-03T04:41:28.841Z,21.50
2023-07-03T04:46:51.206Z,22.25
2023-07-03T04:52:13.661Z,21.88
2023-07-03T04:57:43.843Z,22.22
2023-07-03T05:03:06.359Z,23.63
2023-07-03T05:08:28.197Z,23.89
2023-07-03T05:13:50.268Z,24.59
2023-07-03T05:19:12.584Z,23.82
2023-07-03T05:24:35.768Z,23.93
2023-07-03T05:29:59.638Z,23.67
2023-07-03T05:35:21.956Z,22.61
2023-07-03T05:40:44.168Z,22.07
2023-07-03T05:46:06.172Z,21.72
2023-07-03T05:51:29.924Z,21.48
2023-07-03T05:57:07.147Z,20.95
2023-07-03T06:02:29.114Z,21.03
2023-07-03T06:07:51.126Z,22.18
2023-07-03T06:13:12.932Z,22.62
2023-07-03T06:18:34.890Z,21.28
2023-07-03T06:23:57.039Z,20.60
2023-07-03T06:29:19.445Z,20.01
2023-07-03T06:34:41.807Z,19.62
2023-07-03T06:40:11.056Z,19.10
2023-07-03T06:45:33.008Z,18.95
2023-07-03T06:51:04.124Z,19.80
2023-07-03T06:56:27.052Z,19.95
2023-07-03T07:01:49.252Z,19.91
2023-07-03T07:07:11.650Z,21.12
2023-07-03T07:12:33.420Z,20.47
2023-07-03T07:17:55.568Z,20.30
2023-07-03T07:23:17.537Z,22.44
2023-07-03T07:28:39.519Z,21.93
2023-07-03T07:34:01.927Z,20.94
2023-07-03T07:39:29.172Z,20.72
2023-07-03T07:44:51.351Z,20.16
2023-07-03T07:50:13.817Z,20.07
2023-07-03T07:55:38.457Z,20.89
2023-07-03T08:01:00.955Z,20.35
2023-07-03T08:06:23.133Z,19.79
2023-07-03T08:11:46.015Z,19.22
2023-07-03T08:17:08.233Z,19.06
2023-07-03T08:22:30.460Z,19.20
2023-07-03T08:27:52.978Z,19.11
2023-07-03T08:33:16.874Z,18.85
2023-07-03T08:38:42.191Z,18.66
2023-07-03T08:44:04.811Z,18.54
2023-07-03T08:49:28.073Z,18.53
2023-07-03T08:54:51.347Z,19.29
2023-07-03T09:00:14.320Z,20.57
2023-07-03T09:05:46.821Z,21.07
2023-07-03T09:11:09.214Z,20.87
2023-07-03T09:16:32.680Z,21.13
2023-07-03T09:21:59.479Z,21.00
2023-07-03T09:27:27.067Z,21.17
2023-07-03T09:32:49.547Z,22.17
2023-07-03T09:38:36.785Z,21.16
2023-07-03T09:43:58.728Z,22.63
2023-07-03T09:49:30.404Z,22.01
2023-07-03T09:54:52.523Z,22.87
2023-07-03T10:00:20.734Z,22.11
2023-07-03T10:16:37.906Z,23.11
2023-07-03T10:22:00.031Z,23.36
2023-07-03T10:27:23.515Z,22.85
2023-07-03T10:32:49.843Z,22.88
2023-07-03T10:38:26.943Z,23.04
2023-07-03T10:44:01.069Z,22.02
2023-07-03T10:49:37.469Z,21.72
2023-07-03T10:55:16.854Z,21.85
2023-07-03T11:01:04.382Z,21.16
2023-07-03T11:06:55.187Z,21.96
2023-07-03T11:12:42.039Z,21.47
2023-07-03T11:24:39.556Z,21.30
2023-07-03T11:30:02.908Z,21.86
2023-07-03T11:40:56.960Z,22.20
2023-07-03T11:46:23.160Z,22.23
2023-07-03T11:51:44.977Z,22.11
2023-07-03T11:57:33.763Z,22.49
2023-07-03T12:03:01.554Z,22.97
2023-07-03T12:08:23.751Z,22.78
2023-07-03T12:13:49.161Z,23.36
2023-07-03T12:19:12.270Z,22.48
2023-07-03T12:24:34.488Z,22.76
2023-07-03T12:29:57.194Z,22.85
2023-07-03T12:35:25.730Z,22.63
2023-07-03T12:40:47.874Z,22.39
2023-07-03T12:46:09.666Z,22.10
2023-07-03T12:51:36.302Z,22.00
2023-07-03T12:56:59.462Z,22.79
2023-07-03T13:02:24.840Z,22.78
2023-07-03T13:07:49.640Z,23.17
2023-07-03T13:13:19.374Z,23.21
2023-07-03T13:18:42.226Z,23.12
2023-07-03T13:24:11.286Z,23.11
2023-07-03T13:29:35.466Z,23.02
2023-07-03T13:34:57.557Z,23.10
2023-07-03T13:40:19.801Z,23.11
2023-07-03T13:45:41.818Z,23.25
2023-07-03T13:51:03.598Z,22.98
2023-07-03T13:56:25.628Z,21.77
2023-07-03T14:01:48.611Z,22.14
2023-07-03T14:07:11.269Z,22.22
2023-07-03T14:12:33.430Z,21.83
2023-07-03T14:17:55.449Z,22.06
2023-07-03T14:23:18.597Z,22.71
2023-07-03T14:28:41.405Z,22.66
2023-07-03T14:34:03.131Z,22.96
2023-07-03T14:39:25.142Z,22.84
2023-07-03T14:44:46.928Z,22.86
2023-07-03T14:50:10.976Z,23.02
2023-07-03T14:55:32.759Z,22.85
2023-07-03T15:00:55.318Z,22.82
2023-07-03T15:06:17.385Z,23.12
2023-07-03T15:11:40.021Z,23.21
2023-07-03T15:17:02.717Z,23.35
2023-07-03T15:22:25.065Z,27.26
2023-07-03T15:27:48.116Z,26.60
2023-07-03T15:33:10.189Z,27.24
2023-07-03T15:38:32.415Z,25.29
2023-07-03T15:43:54.121Z,23.17
2023-07-03T15:49:16.574Z,22.98
2023-07-03T15:54:39.682Z,22.91
2023-07-03T16:00:01.831Z,22.40
2023-07-03T16:05:27.836Z,22.55
2023-07-03T16:10:49.392Z,22.01
2023-07-03T16:16:19.854Z,21.71
2023-07-03T16:21:42.889Z,21.44
2023-07-03T16:27:05.506Z,21.46
2023-07-03T16:32:33.277Z,20.92
2023-07-03T16:37:59.249Z,20.82
2023-07-03T16:43:21.116Z,20.82
2023-07-03T16:48:43.579Z,20.23
2023-07-03T16:54:07.476Z,19.73
2023-07-03T16:59:30.759Z,19.25
2023-07-03T17:04:58.229Z,18.57
2023-07-03T17:10:20.515Z,18.10
2023-07-03T17:15:42.635Z,17.78
2023-07-03T17:21:04.657Z,17.86
2023-07-03T17:26:26.678Z,17.56
2023-07-03T17:31:48.875Z,17.25
2023-07-03T17:37:10.973Z,17.20
2023-07-03T17:42:33.213Z,16.83
2023-07-03T17:47:55.863Z,16.61
2023-07-03T17:53:18.200Z,16.28
2023-07-03T17:58:41.137Z,16.14
2023-07-03T18:04:04.476Z,16.19
2023-07-03T18:09:26.422Z,15.55
2023-07-03T18:14:48.284Z,15.40
2023-07-03T18:20:10.555Z,15.23
2023-07-03T18:25:35.802Z,15.21
2023-07-03T18:31:02.982Z,14.92
2023-07-03T18:36:25.657Z,14.71
2023-07-03T18:41:48.259Z,14.53
2023-07-03T18:47:14.168Z,14.52
2023-07-03T18:52:38.211Z,14.43
2023-07-03T18:58:01.050Z,14.33
2023-07-03T19:03:25.465Z,14.20
2023-07-03T19:08:49.627Z,14.21
2023-07-03T19:14:14.989Z,14.24
2023-07-03T19:19:37.471Z,13.76
2023-07-03T19:25:00.343Z,13.73
2023-07-03T19:30:22.812Z,13.65
2023-07-03T19:35:44.682Z,13.43
2023-07-03T19:41:07.935Z,13.44
2023-07-03T19:46:33.090Z,13.38
2023-07-03T19:51:55.406Z,13.21
2023-07-03T19:57:18.978Z,13.11
2023-07-03T20:02:42.084Z,13.02
2023-07-03T20:08:04.761Z,13.16
2023-07-03T20:13:26.956Z,12.88
2023-07-03T20:18:54.428Z,12.83
2023-07-03T20:24:16.966Z,12.70
2023-07-03T20:29:39.035Z,12.40
2023-07-03T20:35:02.267Z,12.45
2023-07-03T20:40:25.797Z,12.48
2023-07-03T20:45:58.647Z,12.61
2023-07-03T20:51:23.890Z,12.30
2023-07-03T20:56:45.777Z,12.08
2023-07-03T21:02:07.596Z,12.04
2023-07-03T21:07:29.529Z,12.28
2023-07-03T21:12:51.372Z,12.11
2023-07-03T21:18:13.441Z,12.14
2023-07-03T21:23:35.449Z,11.90
2023-07-03T21:28:57.720Z,11.81
2023-07-03T21:34:19.580Z,11.69
2023-07-03T21:39:41.657Z,11.76
2023-07-03T21:45:04.371Z,11.92
2023-07-03T21:50:27.492Z,11.50
2023-07-03T21:55:50.402Z,11.47
2023-07-03T22:01:26.975Z,11.48
2023-07-03T22:06:49.436Z,11.46
2023-07-03T22:12:12.311Z,11.62
2023-07-03T22:17:34.303Z,11.48
2023-07-03T22:22:56.135Z,11.14
2023-07-03T22:28:18.080Z,11.07
2023-07-03T22:33:40.542Z,11.36
2023-07-03T22:39:03.358Z,11.56
2023-07-03T22:44:25.408Z,11.09
2023-07-03T22:49:48.938Z,11.36
2023-07-03T22:55:11.437Z,11.24
2023-07-03T23:00:33.711Z,11.16
2023-07-03T23:05:56.159Z,11.28
2023-07-03T23:11:18.408Z,10.86
2023-07-03T23:16:40.422Z,10.81
2023-07-03T23:22:02.328Z,10.60
2023-07-03T23:27:25.419Z,10.67
2023-07-03T23:32:48.039Z,10.68
2023-07-03T23:38:11.508Z,10.75
2023-07-03T23:43:34.413Z,10.63
2023-07-03T23:48:56.307Z,10.81
2023-07-03T23:54:18.225Z,10.67
2023-07-03T23:59:40.252Z,10.13
